Time,TemperatureF,DewpointF,PressureIn,WindDirection,WindDirectionDegrees,WindSpeedMPH,WindSpeedGustMPH,Humidity,HourlyPrecipIn,Conditions,Clouds,dailyrainin,SoftwareType,DateUTC
2013-02-26 00:00:00,66.7,66.7,29.71,SE,144,0.0,4.0,100,0.00,,---,0.00,VWS V14.01,2013-02-26 05:00:00,
2013-02-26 00:05:00,66.7,66.7,29.71,ESE,109,0.0,2.2,100,0.00,,---,0.00,VWS V14.01,2013-02-26 05:05:00,
2013-02-26 00:10:00,66.9,66.9,29.71,ESE,109,0.0,0.0,100,0.00,,---,0.00,VWS V14.01,2013-02-26 05:10:00,
2013-02-26 00:15:00,66.9,66.9,29.71,East,90,4.0,4.0,100,0.00,,---,0.00,VWS V14.01,2013-02-26 05:15:00,
2013-02-26 00:20:00,66.9,66.9,29.71,ENE,72,0.0,0.0,100,0.00,,---,0.00,VWS V14.01,2013-02-26 05:20:00,
2013-02-26 00:25:00,66.9,66.9,29.68,ESE,102,0.0,0.0,100,0.00,,---,0.00,VWS V14.01,2013-02-26 05:25:00,
2013-02-26 00:30:00,67.1,67.1,29.68,East,101,0.0,0.0,100,0.00,,---,0.00,VWS V14.01,2013-02-26 05:30:00,
2013-02-26 00:35:00,67.1,67.1,29.68,East,86,0.0,0.0,100,0.00,,---,0.00,VWS V14.01,2013-02-26 05:35:00,
2013-02-26 00:40:00,67.1,67.1,29.68,ESE,110,0.0,0.0,100,0.00,,---,0.00,VWS V14.01,2013-02-26 05:40:00,
2013-02-26 00:45:00,66.9,66.9,29.68,East,89,0.0,0.0,100,0.00,,---,0.00,VWS V14.01,2013-02-26 05:45:00,
2013-02-26 00:50:00,66.9,66.9,29.68,NNE,20,0.0,0.0,100,0.00,,---,0.00,VWS V14.01,2013-02-26 05:50:00,
2013-02-26 00:55:00,66.9,66.9,29.68,NNE,21,0.0,0.0,100,0.00,,---,0.00,VWS V14.01,2013-02-26 05:55:00,
2013-02-26 01:00:00,67.1,67.1,29.68,East,86,0.0,0.0,100,0.00,,---,0.00,VWS V14.01,2013-02-26 06:00:00,
2013-02-26 01:05:00,67.1,67.1,29.68,East,86,0.0,0.0,100,0.00,,---,0.00,VWS V14.01,2013-02-26 06:05:00,
2013-02-26 01:10:00,66.9,66.9,29.68,East,86,0.0,0.0,100,0.00,,---,0.00,VWS V14.01,2013-02-26 06:10:00,
2013-02-26 01:15:00,66.9,66.9,29.68,East,86,0.0,0.0,100,0.00,,---,0.00,VWS V14.01,2013-02-26 06:15:00,
2013-02-26 01:20:00,66.9,66.9,29.68,East,86,0.0,0.0,100,0.00,,---,0.00,VWS V14.01,2013-02-26 06:20:00,
2013-02-26 01:25:00,66.9,66.9,29.68,East,86,0.0,0.0,100,0.00,,---,0.00,VWS V14.01,2013-02-26 06:25:00,
2013-02-26 01:30:00,66.9,66.9,29.68,East,86,0.0,0.0,100,0.00,,---,0.00,VWS V14.01,2013-02-26 06:30:00,
2013-02-26 01:35:00,66.9,66.9,29.68,East,86,0.0,0.0,100,0.00,,---,0.00,VWS V14.01,2013-02-26 06:35:00,
2013-02-26 01:40:00,66.9,66.9,29.65,East,86,0.0,0.0,100,0.00,,---,0.00,VWS V14.01,2013-02-26 06:40:00,
2013-02-26 01:45:00,66.9,66.9,29.65,East,86,0.0,0.0,100,0.00,,---,0.00,VWS V14.01,2013-02-26 06:45:00,
2013-02-26 01:50:00,66.9,66.9,29.65,East,86,0.0,0.0,100,0.00,,---,0.00,VWS V14.01,2013-02-26 06:50:00,
2013-02-26 01:55:00,66.9,66.9,29.65,East,86,0.0,0.0,100,0.00,,---,0.00,VWS V14.01,2013-02-26 06:55:00,
2013-02-26 02:00:00,67.1,67.1,29.65,East,86,0.0,0.0,100,0.00,,---,0.00,VWS V14.01,2013-02-26 07:00:00,
2013-02-26 02:05:00,67.1,67.1,29.65,East,86,0.0,0.0,100,0.00,,---,0.00,VWS V14.01,2013-02-26 07:05:00,
2013-02-26 02:10:00,67.1,67.1,29.65,East,86,0.0,0.0,100,0.00,,---,0.00,VWS V14.01,2013-02-26 07:10:00,
2013-02-26 02:15:00,67.1,67.1,29.65,East,86,0.0,0.0,100,0.00,,---,0.00,VWS V14.01,2013-02-26 07:15:00,
2013-02-26 02:20:00,67.1,67.1,29.65,East,86,0.0,0.0,100,0.00,,---,0.00,VWS V14.01,2013-02-26 07:20:00,
2013-02-26 02:25:00,67.3,67.3,29.65,East,86,0.0,0.0,100,0.00,,---,0.00,VWS V14.01,2013-02-26 07:25:00,
2013-02-26 02:30:00,67.3,67.3,29.65,East,86,0.0,0.0,100,0.00,,---,0.00,VWS V14.01,2013-02-26 07:30:00,
2013-02-26 02:35:00,67.5,67.5,29.65,East,86,0.0,0.0,100,0.00,,---,0.00,VWS V14.01,2013-02-26 07:35:00,
2013-02-26 02:40:00,67.5,67.5,29.62,East,86,0.0,0.0,100,0.00,,---,0.00,VWS V14.01,2013-02-26 07:40:00,
2013-02-26 02:45:00,67.5,67.5,29.62,East,86,0.0,0.0,100,0.00,,---,0.00,VWS V14.01,2013-02-26 07:45:00,
2013-02-26 02:50:00,67.5,67.5,29.62,East,86,0.0,0.0,100,0.00,,---,0.00,VWS V14.01,2013-02-26 07:50:00,
2013-02-26 02:55:00,67.5,67.5,29.62,East,86,0.0,0.0,100,0.00,,---,0.00,VWS V14.01,2013-02-26 07:55:00,
2013-02-26 03:00:00,67.5,67.5,29.62,East,86,0.0,0.0,100,0.00,,---,0.00,VWS V14.01,2013-02-26 08:00:00,
2013-02-26 03:05:00,67.5,67.5,29.62,East,86,0.0,0.0,100,0.00,,---,0.00,VWS V14.01,2013-02-26 08:05:00,
2013-02-26 03:10:00,67.5,67.5,29.62,East,86,0.0,0.0,100,0.00,,---,0.00,VWS V14.01,2013-02-26 08:10:00,
2013-02-26 03:15:00,67.5,67.5,29.62,South,179,0.0,0.0,100,0.00,,---,0.00,VWS V14.01,2013-02-26 08:15:00,
2013-02-26 03:20:00,67.6,67.6,29.62,South,179,0.0,0.0,100,0.00,,---,0.00,VWS V14.01,2013-02-26 08:20:00,
2013-02-26 03:25:00,67.6,67.6,29.62,South,179,0.0,0.0,100,0.00,,---,0.00,VWS V14.01,2013-02-26 08:25:00,
2013-02-26 03:30:00,67.5,67.5,29.62,South,179,0.0,0.0,100,0.00,,---,0.00,VWS V14.01,2013-02-26 08:30:00,
2013-02-26 03:35:00,67.5,67.5,29.62,South,179,0.0,0.0,100,0.00,,---,0.00,VWS V14.01,2013-02-26 08:35:00,
2013-02-26 03:40:00,67.5,67.5,29.62,South,179,0.0,0.0,100,0.00,,---,0.00,VWS V14.01,2013-02-26 08:40:00,
2013-02-26 03:45:00,67.5,67.5,29.62,South,179,0.0,0.0,100,0.00,,---,0.00,VWS V14.01,2013-02-26 08:45:00,
2013-02-26 03:50:00,67.5,67.5,29.62,South,179,0.0,0.0,100,0.00,,---,0.00,VWS V14.01,2013-02-26 08:50:00,
2013-02-26 03:55:00,67.5,67.5,29.59,South,179,0.0,0.0,100,0.00,,---,0.00,VWS V14.01,2013-02-26 08:55:00,
2013-02-26 04:00:00,67.5,67.5,29.59,South,179,0.0,0.0,100,0.00,,---,0.00,VWS V14.01,2013-02-26 09:00:00,
2013-02-26 04:05:00,67.6,67.6,29.59,South,179,0.0,0.0,100,0.00,,---,0.00,VWS V14.01,2013-02-26 09:05:00,
2013-02-26 04:10:00,67.8,67.8,29.59,South,179,0.0,0.0,100,0.00,,---,0.00,VWS V14.01,2013-02-26 09:10:00,
2013-02-26 04:15:00,67.8,67.8,29.59,South,179,0.0,0.0,100,0.00,,---,0.00,VWS V14.01,2013-02-26 09:15:00,
2013-02-26 04:20:00,67.8,67.8,29.59,South,179,0.0,0.0,100,0.00,,---,0.00,VWS V14.01,2013-02-26 09:20:00,
2013-02-26 04:25:00,68.0,68.0,29.62,South,179,0.0,0.0,100,0.00,,---,0.00,VWS V14.01,2013-02-26 09:25:00,
2013-02-26 04:30:00,68.0,68.0,29.62,SSE,163,0.0,2.7,100,0.00,,---,0.00,VWS V14.01,2013-02-26 09:30:00,
2013-02-26 04:35:00,68.0,68.0,29.62,South,177,4.0,4.0,100,0.00,,---,0.00,VWS V14.01,2013-02-26 09:35:00,
2013-02-26 04:40:00,68.2,68.2,29.62,SSE,154,0.0,0.0,100,0.00,,---,0.00,VWS V14.01,2013-02-26 09:40:00,
2013-02-26 04:45:00,68.2,68.2,29.62,South,175,4.0,4.0,100,0.00,,---,0.00,VWS V14.01,2013-02-26 09:45:00,
2013-02-26 04:50:00,68.2,68.2,29.62,SSE,163,2.2,2.2,100,0.00,,---,0.00,VWS V14.01,2013-02-26 09:50:00,
2013-02-26 04:55:00,68.0,68.0,29.62,South,182,3.6,3.6,100,0.00,,---,0.00,VWS V14.01,2013-02-26 09:55:00,
2013-02-26 05:00:00,68.2,68.2,29.62,SSE,162,2.2,4.9,100,0.00,,---,0.00,VWS V14.01,2013-02-26 10:00:00,
2013-02-26 05:05:00,68.2,68.2,29.62,South,171,2.7,3.1,100,0.00,,---,0.00,VWS V14.01,2013-02-26 10:05:00,
2013-02-26 05:10:00,68.2,68.2,29.62,SSW,197,4.9,4.9,100,0.00,,---,0.00,VWS V14.01,2013-02-26 10:10:00,
2013-02-26 05:15:00,68.0,68.0,29.62,SSE,164,2.7,3.1,100,0.00,,---,0.00,VWS V14.01,2013-02-26 10:15:00,
2013-02-26 05:20:00,68.0,68.0,29.62,SSE,166,3.1,3.1,100,0.00,,---,0.00,VWS V14.01,2013-02-26 10:20:00,
2013-02-26 05:25:00,68.2,68.2,29.59,South,181,4.9,4.9,100,0.00,,---,0.00,VWS V14.01,2013-02-26 10:25:00,
2013-02-26 05:30:00,68.2,68.2,29.59,South,185,3.1,4.9,100,0.00,,---,0.00,VWS V14.01,2013-02-26 10:30:00,
2013-02-26 05:35:00,68.2,68.2,29.59,SSW,193,4.9,4.9,100,0.00,,---,0.00,VWS V14.01,2013-02-26 10:35:00,
2013-02-26 05:40:00,68.2,68.2,29.59,SSW,201,5.8,5.8,100,0.00,,---,0.00,VWS V14.01,2013-02-26 10:40:00,
2013-02-26 05:45:00,68.0,68.0,29.59,South,172,2.7,6.7,100,0.00,,---,0.00,VWS V14.01,2013-02-26 10:45:00,
2013-02-26 05:50:00,68.0,68.0,29.59,South,185,8.7,8.7,100,0.00,,---,0.00,VWS V14.01,2013-02-26 10:50:00,
2013-02-26 05:55:00,68.2,68.2,29.59,SSE,159,6.7,6.7,100,0.00,,---,0.00,VWS V14.01,2013-02-26 10:55:00,
2013-02-26 06:00:00,68.4,68.4,29.59,SSE,152,4.9,4.9,100,0.00,,---,0.00,VWS V14.01,2013-02-26 11:00:00,
2013-02-26 06:05:00,68.4,68.4,29.59,South,170,3.1,4.0,100,0.00,,---,0.00,VWS V14.01,2013-02-26 11:05:00,
2013-02-26 06:10:00,68.2,68.2,29.59,SSE,156,3.1,3.1,100,0.00,,---,0.00,VWS V14.01,2013-02-26 11:10:00,
2013-02-26 06:15:00,68.4,68.4,29.59,South,189,6.3,6.3,100,0.00,,---,0.00,VWS V14.01,2013-02-26 11:15:00,
2013-02-26 06:20:00,68.4,68.4,29.59,SSE,167,3.6,6.3,100,0.00,,---,0.00,VWS V14.01,2013-02-26 11:20:00,
2013-02-26 06:25:00,68.5,68.5,29.59,South,189,6.3,6.3,100,0.00,,---,0.00,VWS V14.01,2013-02-26 11:25:00,
2013-02-26 06:30:00,68.5,67.8,29.59,South,191,4.9,7.6,98,0.00,,---,0.00,VWS V14.01,2013-02-26 11:30:00,
2013-02-26 06:35:00,68.5,66.2,29.59,South,182,7.6,7.6,92,0.00,,---,0.00,VWS V14.01,2013-02-26 11:35:00,
2013-02-26 06:40:00,68.9,65.9,29.56,SSE,148,4.9,7.6,90,0.00,,---,0.00,VWS V14.01,2013-02-26 11:40:00,
2013-02-26 06:45:00,68.9,64.6,29.56,South,169,5.4,5.4,86,0.00,,---,0.00,VWS V14.01,2013-02-26 11:45:00,
2013-02-26 06:50:00,69.1,64.4,29.56,South,169,8.1,8.1,85,0.00,,---,0.00,VWS V14.01,2013-02-26 11:50:00,
2013-02-26 06:55:00,69.3,64.2,29.56,SSE,160,5.4,11.0,84,0.00,,---,0.00,VWS V14.01,2013-02-26 11:55:00,
2013-02-26 07:00:00,69.1,64.8,29.56,WSW,245,8.1,8.1,86,0.00,,---,0.00,VWS V14.01,2013-02-26 12:00:00,
2013-02-26 07:05:00,68.7,65.4,29.56,South,191,8.1,8.1,89,0.00,,---,0.00,VWS V14.01,2013-02-26 12:05:00,
2013-02-26 07:10:00,68.5,65.9,29.56,South,182,4.0,5.8,91,0.00,,---,0.00,VWS V14.01,2013-02-26 12:10:00,
2013-02-26 07:15:00,68.4,66.1,29.56,SE,136,5.4,8.7,92,0.00,,---,0.00,VWS V14.01,2013-02-26 12:15:00,
2013-02-26 07:20:00,68.2,66.2,29.56,SSW,203,4.0,4.0,93,0.00,,---,0.00,VWS V14.01,2013-02-26 12:20:00,
2013-02-26 07:25:00,68.0,66.0,29.53,South,183,4.0,7.6,93,0.00,,---,0.00,VWS V14.01,2013-02-26 12:25:00,
2013-02-26 07:30:00,68.0,66.0,29.53,South,181,8.7,10.1,93,0.00,,---,0.00,VWS V14.01,2013-02-26 12:30:00,
2013-02-26 07:35:00,68.0,65.4,29.53,South,171,8.1,10.5,91,0.00,,---,0.00,VWS V14.01,2013-02-26 12:35:00,
2013-02-26 07:40:00,68.2,64.9,29.56,South,184,8.3,8.3,89,0.00,,---,0.00,VWS V14.01,2013-02-26 12:40:00,
2013-02-26 07:45:00,68.5,63.9,29.56,South,172,10.5,10.5,85,0.00,,---,0.00,VWS V14.01,2013-02-26 12:45:00,
2013-02-26 07:50:00,68.7,63.7,29.56,SSE,164,8.3,8.3,84,0.00,,---,0.00,VWS V14.01,2013-02-26 12:50:00,
2013-02-26 07:55:00,68.5,63.9,29.59,South,177,12.8,15.4,85,0.00,,---,0.00,VWS V14.01,2013-02-26 12:55:00,
2013-02-26 08:00:00,68.2,65.2,29.59,South,180,10.5,10.5,90,0.00,,---,0.00,VWS V14.01,2013-02-26 13:00:00,
2013-02-26 08:05:00,68.0,66.0,29.59,South,172,7.6,7.6,93,0.00,,---,0.00,VWS V14.01,2013-02-26 13:05:00,
2013-02-26 08:10:00,67.8,66.5,29.59,South,177,8.1,8.1,96,0.00,,---,0.00,VWS V14.01,2013-02-26 13:10:00,
2013-02-26 08:15:00,67.8,66.5,29.59,South,173,12.8,12.8,96,0.00,,---,0.00,VWS V14.01,2013-02-26 13:15:00,
2013-02-26 08:20:00,67.8,66.5,29.59,SSW,204,4.9,10.5,96,0.00,,---,0.00,VWS V14.01,2013-02-26 13:20:00,
2013-02-26 08:25:00,67.8,66.5,29.59,SSE,150,5.8,8.7,96,0.00,,---,0.00,VWS V14.01,2013-02-26 13:25:00,
2013-02-26 08:30:00,67.8,66.5,29.59,SSW,199,6.3,9.6,96,0.00,,---,0.00,VWS V14.01,2013-02-26 13:30:00,
2013-02-26 08:35:00,67.8,66.5,29.59,SW,235,4.0,5.8,96,0.00,,---,0.00,VWS V14.01,2013-02-26 13:35:00,
2013-02-26 08:40:00,68.0,66.7,29.62,South,181,7.2,12.8,96,0.00,,---,0.00,VWS V14.01,2013-02-26 13:40:00,
2013-02-26 08:45:00,68.0,67.0,29.62,SSW,203,12.3,12.3,97,0.00,,---,0.00,VWS V14.01,2013-02-26 13:45:00,
2013-02-26 08:50:00,68.0,67.0,29.62,South,172,7.6,8.3,97,0.00,,---,0.00,VWS V14.01,2013-02-26 13:50:00,
2013-02-26 08:55:00,68.0,67.0,29.62,South,178,5.8,8.3,97,0.00,,---,0.00,VWS V14.01,2013-02-26 13:55:00,
2013-02-26 09:00:00,68.0,67.3,29.62,SSE,164,6.3,7.6,98,0.00,,---,0.00,VWS V14.01,2013-02-26 14:00:00,
2013-02-26 09:05:00,68.2,67.5,29.62,South,178,4.9,6.3,98,0.00,,---,0.00,VWS V14.01,2013-02-26 14:05:00,
2013-02-26 09:10:00,68.0,67.6,29.62,SW,218,3.1,4.0,99,0.00,,---,0.00,VWS V14.01,2013-02-26 14:10:00,
2013-02-26 09:15:00,68.2,67.8,29.62,South,173,3.1,8.1,99,0.00,,---,0.00,VWS V14.01,2013-02-26 14:15:00,
2013-02-26 09:20:00,68.4,68.3,29.62,South,185,6.3,8.3,100,0.00,,---,0.00,VWS V14.01,2013-02-26 14:20:00,
2013-02-26 09:25:00,68.4,68.3,29.62,SSE,157,5.4,5.8,100,0.00,,---,0.00,VWS V14.01,2013-02-26 14:25:00,
2013-02-26 09:30:00,68.5,68.5,29.62,South,180,9.6,9.6,100,0.00,,---,0.00,VWS V14.01,2013-02-26 14:30:00,
2013-02-26 09:35:00,68.7,68.7,29.62,South,187,8.1,8.7,100,0.00,,---,0.00,VWS V14.01,2013-02-26 14:35:00,
2013-02-26 09:40:00,68.7,68.7,29.62,SSE,148,5.8,8.3,100,0.00,,---,0.00,VWS V14.01,2013-02-26 14:40:00,
2013-02-26 09:45:00,68.9,68.9,29.62,SW,217,8.1,8.1,100,0.00,,---,0.00,VWS V14.01,2013-02-26 14:45:00,
2013-02-26 09:50:00,68.9,68.9,29.62,SSW,198,5.8,7.6,100,0.00,,---,0.00,VWS V14.01,2013-02-26 14:50:00,
2013-02-26 09:55:00,68.7,68.7,29.62,WSW,254,4.9,4.9,100,0.00,,---,0.00,VWS V14.01,2013-02-26 14:55:00,
2013-02-26 10:00:00,68.5,68.5,29.62,SW,232,4.0,4.5,100,0.00,,---,0.00,VWS V14.01,2013-02-26 15:00:00,
2013-02-26 10:05:00,68.7,68.7,29.62,SW,218,4.9,8.1,100,0.00,,---,0.00,VWS V14.01,2013-02-26 15:05:00,
2013-02-26 10:10:00,68.9,68.9,29.65,SSW,193,4.9,5.8,100,0.00,,---,0.00,VWS V14.01,2013-02-26 15:10:00,
2013-02-26 10:15:00,69.1,69.1,29.65,SW,223,4.9,6.3,100,0.00,,---,0.00,VWS V14.01,2013-02-26 15:15:00,
2013-02-26 10:20:00,68.9,68.9,29.65,SSW,205,7.2,7.2,100,0.00,,---,0.00,VWS V14.01,2013-02-26 15:20:00,
2013-02-26 10:25:00,68.9,68.9,29.65,South,182,3.1,5.8,100,0.00,,---,0.00,VWS V14.01,2013-02-26 15:25:00,
2013-02-26 10:30:00,68.5,68.5,29.65,South,187,2.7,4.0,100,0.00,,---,0.00,VWS V14.01,2013-02-26 15:30:00,
2013-02-26 10:35:00,68.4,68.4,29.65,West,272,4.9,5.4,100,0.00,,---,0.00,VWS V14.01,2013-02-26 15:35:00,
2013-02-26 10:40:00,67.1,66.7,29.65,SSW,192,4.9,10.5,99,0.00,,---,0.00,VWS V14.01,2013-02-26 15:40:00,
2013-02-26 10:45:00,67.3,66.6,29.65,WSW,243,7.6,11.0,98,0.00,,---,0.00,VWS V14.01,2013-02-26 15:45:00,
2013-02-26 10:50:00,66.9,65.6,29.65,SE,142,11.0,11.0,96,0.00,,---,0.00,VWS V14.01,2013-02-26 15:50:00,
2013-02-26 10:55:00,66.9,65.3,29.62,South,178,7.6,15.4,94,0.00,,---,0.00,VWS V14.01,2013-02-26 15:55:00,
2013-02-26 11:00:00,67.1,65.5,29.62,SSW,192,10.5,12.3,94,0.00,,---,0.00,VWS V14.01,2013-02-26 16:00:00,
2013-02-26 11:05:00,67.8,64.9,29.62,South,174,8.1,15.9,90,0.00,,---,0.00,VWS V14.01,2013-02-26 16:05:00,
2013-02-26 11:10:00,68.2,63.9,29.62,SSW,213,11.0,11.0,86,0.00,,---,0.00,VWS V14.01,2013-02-26 16:10:00,
2013-02-26 11:15:00,68.4,63.7,29.62,South,176,5.8,10.1,85,0.00,,---,0.00,VWS V14.01,2013-02-26 16:15:00,
2013-02-26 11:20:00,68.7,62.6,29.62,SSW,196,10.1,10.5,81,0.00,,---,0.00,VWS V14.01,2013-02-26 16:20:00,
2013-02-26 11:25:00,69.6,63.5,29.62,SSW,192,7.6,7.6,81,0.00,,---,0.00,VWS V14.01,2013-02-26 16:25:00,
2013-02-26 11:30:00,69.6,62.0,29.62,South,173,8.7,13.2,77,0.00,,---,0.00,VWS V14.01,2013-02-26 16:30:00,
2013-02-26 11:35:00,70.2,62.1,29.62,South,186,8.1,12.3,76,0.00,,---,0.00,VWS V14.01,2013-02-26 16:35:00,
2013-02-26 11:40:00,70.9,60.3,29.62,South,184,14.1,14.1,69,0.00,,---,0.00,VWS V14.01,2013-02-26 16:40:00,
2013-02-26 11:45:00,72.0,58.7,29.62,South,176,10.5,12.8,63,0.00,,---,0.00,VWS V14.01,2013-02-26 16:45:00,
2013-02-26 11:50:00,73.0,56.3,29.62,South,189,12.8,12.8,56,0.00,,---,0.00,VWS V14.01,2013-02-26 16:50:00,
2013-02-26 11:55:00,72.1,57.4,29.62,SSE,164,10.5,12.3,60,0.00,,---,0.00,VWS V14.01,2013-02-26 16:55:00,
2013-02-26 12:00:00,73.0,57.3,29.62,SW,222,6.7,10.5,58,0.00,,---,0.00,VWS V14.01,2013-02-26 17:00:00,
2013-02-26 12:05:00,74.3,56.4,29.62,SW,224,6.7,10.1,54,0.00,,---,0.00,VWS V14.01,2013-02-26 17:05:00,
2013-02-26 12:10:00,73.6,55.7,29.62,SSE,168,13.6,13.6,54,0.00,,---,0.00,VWS V14.01,2013-02-26 17:10:00,
2013-02-26 12:15:00,73.6,57.3,29.62,SSW,192,8.7,10.5,57,0.00,,---,0.00,VWS V14.01,2013-02-26 17:15:00,
2013-02-26 12:20:00,73.2,57.5,29.62,South,190,11.0,11.0,58,0.00,,---,0.00,VWS V14.01,2013-02-26 17:20:00,
2013-02-26 12:25:00,73.2,57.5,29.62,SW,215,11.9,12.3,58,0.00,,---,0.00,VWS V14.01,2013-02-26 17:25:00,
2013-02-26 12:30:00,73.2,56.9,29.62,South,181,11.9,11.9,57,0.00,,---,0.00,VWS V14.01,2013-02-26 17:30:00,
2013-02-26 12:35:00,74.1,56.7,29.62,SSW,213,5.4,5.4,55,0.00,,---,0.00,VWS V14.01,2013-02-26 17:35:00,
2013-02-26 12:40:00,74.3,54.1,29.59,SSW,208,8.1,15.4,49,0.00,,---,0.00,VWS V14.01,2013-02-26 17:40:00,
2013-02-26 12:45:00,74.7,54.5,29.59,SSW,211,11.4,11.4,49,0.00,,---,0.00,VWS V14.01,2013-02-26 17:45:00,
2013-02-26 12:50:00,74.8,52.8,29.59,SSE,166,8.3,11.0,46,0.00,,---,0.00,VWS V14.01,2013-02-26 17:50:00,
2013-02-26 12:55:00,77.5,54.0,29.59,SSW,207,8.3,8.3,44,0.00,,---,0.00,VWS V14.01,2013-02-26 17:55:00,
2013-02-26 13:00:00,76.3,50.8,29.59,SSW,195,7.6,8.7,41,0.00,,---,0.00,VWS V14.01,2013-02-26 18:00:00,
2013-02-26 13:05:00,77.7,48.4,29.59,SSW,205,10.1,11.0,36,0.00,,---,0.00,VWS V14.01,2013-02-26 18:05:00,
2013-02-26 13:10:00,80.4,47.5,29.59,SW,230,13.2,13.2,31,0.00,,---,0.00,VWS V14.01,2013-02-26 18:10:00,
2013-02-26 13:15:00,81.3,48.2,29.59,SSE,160,5.8,8.3,31,0.00,,---,0.00,VWS V14.01,2013-02-26 18:15:00,
2013-02-26 13:20:00,81.7,43.8,29.59,South,180,7.2,10.1,26,0.00,,---,0.00,VWS V14.01,2013-02-26 18:20:00,
2013-02-26 13:25:00,82.4,39.8,29.56,SW,218,10.1,10.1,22,0.00,,---,0.00,VWS V14.01,2013-02-26 18:25:00,
2013-02-26 13:30:00,80.4,44.7,29.56,South,188,10.5,12.8,28,0.00,,---,0.00,VWS V14.01,2013-02-26 18:30:00,
2013-02-26 13:35:00,77.5,37.0,29.56,South,171,6.3,6.3,23,0.00,,---,0.00,VWS V14.01,2013-02-26 18:35:00,
2013-02-26 13:40:00,77.2,34.3,29.59,SW,215,9.6,15.0,21,0.00,,---,0.00,VWS V14.01,2013-02-26 18:40:00,
2013-02-26 13:45:00,77.0,34.1,29.59,SW,236,7.6,9.2,21,0.00,,---,0.00,VWS V14.01,2013-02-26 18:45:00,
2013-02-26 13:50:00,77.4,34.4,29.59,SSW,202,8.3,13.6,21,0.00,,---,0.00,VWS V14.01,2013-02-26 18:50:00,
2013-02-26 13:55:00,77.4,35.6,29.56,West,261,10.5,10.5,22,0.00,,---,0.00,VWS V14.01,2013-02-26 18:55:00,
2013-02-26 14:00:00,77.2,34.3,29.56,SSW,212,6.3,15.4,21,0.00,,---,0.00,VWS V14.01,2013-02-26 19:00:00,
2013-02-26 14:05:00,77.4,34.4,29.56,SSW,205,13.2,13.2,21,0.00,,---,0.00,VWS V14.01,2013-02-26 19:05:00,
2013-02-26 14:10:00,77.5,34.6,29.56,SW,214,8.1,12.3,21,0.00,,---,0.00,VWS V14.01,2013-02-26 19:10:00,
2013-02-26 14:15:00,77.5,35.8,29.56,SSW,193,5.4,11.0,22,0.00,,---,0.00,VWS V14.01,2013-02-26 19:15:00,
2013-02-26 14:20:00,77.5,34.6,29.56,SW,227,4.0,8.7,21,0.00,,---,0.00,VWS V14.01,2013-02-26 19:20:00,
2013-02-26 14:25:00,77.9,32.2,29.56,WSW,250,8.3,10.1,19,0.00,,---,0.00,VWS V14.01,2013-02-26 19:25:00,
2013-02-26 14:30:00,78.1,32.4,29.56,WSW,237,8.1,8.1,19,0.00,,---,0.00,VWS V14.01,2013-02-26 19:30:00,
2013-02-26 14:35:00,78.1,32.4,29.56,South,187,6.3,10.5,19,0.00,,---,0.00,VWS V14.01,2013-02-26 19:35:00,
2013-02-26 14:40:00,78.3,32.5,29.56,SW,219,6.3,7.6,19,0.00,,---,0.00,VWS V14.01,2013-02-26 19:40:00,
2013-02-26 14:45:00,78.3,35.2,29.56,SW,231,3.6,8.1,21,0.00,,---,0.00,VWS V14.01,2013-02-26 19:45:00,
2013-02-26 14:50:00,77.9,34.9,29.56,SSW,211,8.7,8.7,21,0.00,,---,0.00,VWS V14.01,2013-02-26 19:50:00,
2013-02-26 14:55:00,78.1,35.0,29.59,SW,215,11.0,11.0,21,0.00,,---,0.00,VWS V14.01,2013-02-26 19:55:00,
2013-02-26 15:00:00,77.9,34.9,29.59,SW,220,7.6,9.6,21,0.00,,---,0.00,VWS V14.01,2013-02-26 20:00:00,
2013-02-26 15:05:00,77.7,35.9,29.59,SW,225,5.4,8.1,22,0.00,,---,0.00,VWS V14.01,2013-02-26 20:05:00,
2013-02-26 15:10:00,77.4,35.6,29.59,West,273,4.9,5.8,22,0.00,,---,0.00,VWS V14.01,2013-02-26 20:10:00,
2013-02-26 15:15:00,77.0,35.3,29.59,ESE,109,3.1,5.8,22,0.00,,---,0.00,VWS V14.01,2013-02-26 20:15:00,
2013-02-26 15:20:00,77.4,35.6,29.59,South,174,4.9,10.1,22,0.00,,---,0.00,VWS V14.01,2013-02-26 20:20:00,
2013-02-26 15:25:00,77.2,35.5,29.59,SSW,209,5.4,8.3,22,0.00,,---,0.00,VWS V14.01,2013-02-26 20:25:00,
2013-02-26 15:30:00,77.2,36.7,29.59,SSW,199,9.6,9.6,23,0.00,,---,0.00,VWS V14.01,2013-02-26 20:30:00,
2013-02-26 15:35:00,77.2,35.5,29.59,SW,229,7.6,8.3,22,0.00,,---,0.00,VWS V14.01,2013-02-26 20:35:00,
2013-02-26 15:40:00,76.8,37.5,29.59,WSW,254,4.9,7.2,24,0.00,,---,0.00,VWS V14.01,2013-02-26 20:40:00,
2013-02-26 15:45:00,76.8,36.4,29.59,SW,226,8.1,8.1,23,0.00,,---,0.00,VWS V14.01,2013-02-26 20:45:00,
2013-02-26 15:50:00,76.8,35.2,29.59,SW,223,5.8,5.8,22,0.00,,---,0.00,VWS V14.01,2013-02-26 20:50:00,
2013-02-26 15:55:00,76.6,35.0,29.59,SW,225,4.0,4.0,22,0.00,,---,0.00,VWS V14.01,2013-02-26 20:55:00,
2013-02-26 16:00:00,76.5,34.9,29.59,West,273,3.6,10.1,22,0.00,,---,0.00,VWS V14.01,2013-02-26 21:00:00,
2013-02-26 16:05:00,75.7,35.5,29.59,SW,224,6.3,6.3,23,0.00,,---,0.00,VWS V14.01,2013-02-26 21:05:00,
2013-02-26 16:10:00,75.4,36.3,29.59,SSE,164,8.1,10.5,24,0.00,,---,0.00,VWS V14.01,2013-02-26 21:10:00,
2013-02-26 16:15:00,75.2,36.1,29.59,West,266,5.8,5.8,24,0.00,,---,0.00,VWS V14.01,2013-02-26 21:15:00,
2013-02-26 16:20:00,75.0,36.0,29.59,SW,214,8.7,8.7,24,0.00,,---,0.00,VWS V14.01,2013-02-26 21:20:00,
2013-02-26 16:25:00,74.7,36.7,29.59,South,173,9.6,9.6,25,0.00,,---,0.00,VWS V14.01,2013-02-26 21:25:00,
2013-02-26 16:30:00,74.3,36.4,29.59,SSW,197,8.3,8.3,25,0.00,,---,0.00,VWS V14.01,2013-02-26 21:30:00,
2013-02-26 16:35:00,74.3,36.4,29.59,SW,232,7.6,8.1,25,0.00,,---,0.00,VWS V14.01,2013-02-26 21:35:00,
2013-02-26 16:40:00,74.3,37.5,29.59,SSW,205,5.4,5.4,26,0.00,,---,0.00,VWS V14.01,2013-02-26 21:40:00,
2013-02-26 16:45:00,74.1,38.3,29.59,South,176,5.4,8.1,27,0.00,,---,0.00,VWS V14.01,2013-02-26 21:45:00,
2013-02-26 16:50:00,73.9,37.2,29.59,SW,226,6.3,8.1,26,0.00,,---,0.00,VWS V14.01,2013-02-26 21:50:00,
2013-02-26 16:55:00,73.8,37.0,29.59,SSW,195,8.7,10.1,26,0.00,,---,0.00,VWS V14.01,2013-02-26 21:55:00,
2013-02-26 17:00:00,73.6,37.8,29.59,SSW,211,6.7,6.7,27,0.00,,---,0.00,VWS V14.01,2013-02-26 22:00:00,
2013-02-26 17:05:00,73.4,37.7,29.59,SW,226,5.8,5.8,27,0.00,,---,0.00,VWS V14.01,2013-02-26 22:05:00,
2013-02-26 17:10:00,73.0,38.3,29.59,SW,229,8.1,8.3,28,0.00,,---,0.00,VWS V14.01,2013-02-26 22:10:00,
2013-02-26 17:15:00,73.0,39.3,29.59,SSW,197,4.0,7.6,29,0.00,,---,0.00,VWS V14.01,2013-02-26 22:15:00,
2013-02-26 17:20:00,72.9,39.1,29.59,SSW,204,4.9,4.9,29,0.00,,---,0.00,VWS V14.01,2013-02-26 22:20:00,
2013-02-26 17:25:00,72.5,39.7,29.59,South,183,6.3,8.1,30,0.00,,---,0.00,VWS V14.01,2013-02-26 22:25:00,
2013-02-26 17:30:00,72.0,40.1,29.59,SW,220,15.0,15.0,31,0.00,,---,0.00,VWS V14.01,2013-02-26 22:30:00,
2013-02-26 17:35:00,71.4,41.3,29.59,SSW,193,5.8,7.6,34,0.00,,---,0.00,VWS V14.01,2013-02-26 22:35:00,
2013-02-26 17:40:00,71.2,41.2,29.59,SSE,167,5.8,8.3,34,0.00,,---,0.00,VWS V14.01,2013-02-26 22:40:00,
2013-02-26 17:45:00,70.9,40.8,29.59,South,182,8.7,8.7,34,0.00,,---,0.00,VWS V14.01,2013-02-26 22:45:00,
2013-02-26 17:50:00,70.5,40.5,29.59,SSW,208,13.6,13.6,34,0.00,,---,0.00,VWS V14.01,2013-02-26 22:50:00,
2013-02-26 17:55:00,70.2,41.0,29.59,SSW,201,8.7,11.4,35,0.00,,---,0.00,VWS V14.01,2013-02-26 22:55:00,
2013-02-26 18:00:00,70.0,41.6,29.59,SSW,203,4.0,5.8,36,0.00,,---,0.00,VWS V14.01,2013-02-26 23:00:00,
2013-02-26 18:05:00,69.6,41.3,29.59,SW,220,6.3,8.1,36,0.00,,---,0.00,VWS V14.01,2013-02-26 23:05:00,
2013-02-26 18:10:00,69.4,41.9,29.59,South,183,5.8,8.7,37,0.00,,---,0.00,VWS V14.01,2013-02-26 23:10:00,
2013-02-26 18:15:00,69.1,41.6,29.59,SW,221,5.4,9.6,37,0.00,,---,0.00,VWS V14.01,2013-02-26 23:15:00,
2013-02-26 18:20:00,68.9,42.1,29.59,South,178,5.4,5.4,38,0.00,,---,0.00,VWS V14.01,2013-02-26 23:20:00,
2013-02-26 18:25:00,68.7,42.0,29.62,SSW,208,5.8,7.6,38,0.00,,---,0.00,VWS V14.01,2013-02-26 23:25:00,
2013-02-26 18:30:00,68.7,42.0,29.62,SSW,208,3.1,8.7,38,0.00,,---,0.00,VWS V14.01,2013-02-26 23:30:00,
2013-02-26 18:35:00,68.5,42.5,29.62,SSW,197,3.1,5.4,39,0.00,,---,0.00,VWS V14.01,2013-02-26 23:35:00,
2013-02-26 18:40:00,68.4,42.4,29.62,SW,222,5.4,8.3,39,0.00,,---,0.00,VWS V14.01,2013-02-26 23:40:00,
2013-02-26 18:45:00,68.2,42.2,29.62,SSW,206,4.0,4.0,39,0.00,,---,0.00,VWS V14.01,2013-02-26 23:45:00,
2013-02-26 18:50:00,68.0,42.0,29.62,South,170,3.6,6.3,39,0.00,,---,0.00,VWS V14.01,2013-02-26 23:50:00,
2013-02-26 18:55:00,67.8,42.6,29.62,SW,235,4.9,4.9,40,0.00,,---,0.00,VWS V14.01,2013-02-26 23:55:00,
2013-02-26 19:00:00,67.6,42.4,29.62,SSW,206,3.1,5.8,40,0.00,,---,0.00,VWS V14.01,2013-02-27 00:00:00,
2013-02-26 19:05:00,67.6,42.4,29.62,SSW,197,5.4,5.4,40,0.00,,---,0.00,VWS V14.01,2013-02-27 00:05:00,
2013-02-26 19:10:00,67.6,41.0,29.62,SSW,200,5.8,5.8,38,0.00,,---,0.00,VWS V14.01,2013-02-27 00:10:00,
2013-02-26 19:15:00,67.6,41.0,29.62,SW,229,7.6,7.6,38,0.00,,---,0.00,VWS V14.01,2013-02-27 00:15:00,
2013-02-26 19:20:00,67.6,41.0,29.62,SW,233,8.7,11.4,38,0.00,,---,0.00,VWS V14.01,2013-02-27 00:20:00,
2013-02-26 19:25:00,67.6,41.0,29.65,SSW,206,10.1,10.1,38,0.00,,---,0.00,VWS V14.01,2013-02-27 00:25:00,
2013-02-26 19:30:00,67.6,41.0,29.65,SW,236,8.7,8.7,38,0.00,,---,0.00,VWS V14.01,2013-02-27 00:30:00,
2013-02-26 19:35:00,67.5,40.8,29.65,SSW,202,3.1,4.9,38,0.00,,---,0.00,VWS V14.01,2013-02-27 00:35:00,
2013-02-26 19:40:00,67.3,40.7,29.65,SW,214,5.8,12.3,38,0.00,,---,0.00,VWS V14.01,2013-02-27 00:40:00,
2013-02-26 19:45:00,67.3,41.4,29.65,WSW,256,4.0,4.0,39,0.00,,---,0.00,VWS V14.01,2013-02-27 00:45:00,
2013-02-26 19:50:00,67.1,41.2,29.65,South,174,2.2,6.3,39,0.00,,---,0.00,VWS V14.01,2013-02-27 00:50:00,
2013-02-26 19:55:00,66.9,41.8,29.65,WSW,239,5.8,5.8,40,0.00,,---,0.00,VWS V14.01,2013-02-27 00:55:00,
2013-02-26 20:00:00,66.7,41.6,29.65,SSW,209,2.7,4.9,40,0.00,,---,0.00,VWS V14.01,2013-02-27 01:00:00,
2013-02-26 20:05:00,66.6,42.1,29.65,SW,229,4.0,7.2,41,0.00,,---,0.00,VWS V14.01,2013-02-27 01:05:00,
2013-02-26 20:10:00,66.4,42.6,29.65,SW,225,2.7,3.1,42,0.00,,---,0.00,VWS V14.01,2013-02-27 01:10:00,
2013-02-26 20:15:00,66.4,42.6,29.65,SW,228,4.0,5.8,42,0.00,,---,0.00,VWS V14.01,2013-02-27 01:15:00,
2013-02-26 20:20:00,66.4,42.6,29.65,SSW,200,6.3,6.3,42,0.00,,---,0.00,VWS V14.01,2013-02-27 01:20:00,
2013-02-26 20:25:00,66.0,42.3,29.65,West,264,7.6,8.1,42,0.00,,---,0.00,VWS V14.01,2013-02-27 01:25:00,
2013-02-26 20:30:00,66.2,41.1,29.65,SSE,152,4.9,5.4,40,0.00,,---,0.00,VWS V14.01,2013-02-27 01:30:00,
2013-02-26 20:35:00,66.0,41.0,29.65,SSW,209,5.8,8.1,40,0.00,,---,0.00,VWS V14.01,2013-02-27 01:35:00,
2013-02-26 20:40:00,65.8,40.1,29.68,SW,226,8.3,8.3,39,0.00,,---,0.00,VWS V14.01,2013-02-27 01:40:00,
2013-02-26 20:45:00,65.8,40.1,29.68,South,189,3.1,8.3,39,0.00,,---,0.00,VWS V14.01,2013-02-27 01:45:00,
2013-02-26 20:50:00,65.7,40.6,29.68,South,179,2.2,4.9,40,0.00,,---,0.00,VWS V14.01,2013-02-27 01:50:00,
2013-02-26 20:55:00,65.5,40.5,29.68,SSE,166,7.2,7.2,40,0.00,,---,0.00,VWS V14.01,2013-02-27 01:55:00,
2013-02-26 21:00:00,65.5,41.2,29.68,WSW,246,3.6,8.7,41,0.00,,---,0.00,VWS V14.01,2013-02-27 02:00:00,
2013-02-26 21:05:00,65.3,41.6,29.68,South,177,5.4,5.8,42,0.00,,---,0.00,VWS V14.01,2013-02-27 02:05:00,
2013-02-26 21:10:00,65.1,41.5,29.68,ENE,76,5.4,5.4,42,0.00,,---,0.00,VWS V14.01,2013-02-27 02:10:00,
2013-02-26 21:15:00,64.8,41.8,29.68,West,280,5.8,7.6,43,0.00,,---,0.00,VWS V14.01,2013-02-27 02:15:00,
2013-02-26 21:20:00,64.6,42.3,29.68,SW,225,5.4,5.4,44,0.00,,---,0.00,VWS V14.01,2013-02-27 02:20:00,
2013-02-26 21:25:00,64.6,42.9,29.68,South,189,3.6,6.3,45,0.00,,---,0.00,VWS V14.01,2013-02-27 02:25:00,
2013-02-26 21:30:00,64.6,42.9,29.68,SSW,197,5.8,8.3,45,0.00,,---,0.00,VWS V14.01,2013-02-27 02:30:00,
2013-02-26 21:35:00,64.4,42.7,29.68,SW,225,8.1,8.1,45,0.00,,---,0.00,VWS V14.01,2013-02-27 02:35:00,
2013-02-26 21:40:00,64.2,43.1,29.68,SW,220,5.4,5.8,46,0.00,,---,0.00,VWS V14.01,2013-02-27 02:40:00,
2013-02-26 21:45:00,64.0,43.0,29.68,SSW,193,2.7,4.0,46,0.00,,---,0.00,VWS V14.01,2013-02-27 02:45:00,
2013-02-26 21:50:00,63.9,43.4,29.68,SW,226,3.1,7.6,47,0.00,,---,0.00,VWS V14.01,2013-02-27 02:50:00,
2013-02-26 21:55:00,63.7,43.2,29.68,WSW,243,8.1,8.1,47,0.00,,---,0.00,VWS V14.01,2013-02-27 02:55:00,
2013-02-26 22:00:00,63.5,43.6,29.68,SSW,212,4.0,4.0,48,0.00,,---,0.00,VWS V14.01,2013-02-27 03:00:00,
2013-02-26 22:05:00,63.3,43.5,29.68,South,178,2.2,3.1,48,0.00,,---,0.00,VWS V14.01,2013-02-27 03:05:00,
2013-02-26 22:10:00,63.0,43.2,29.71,WNW,290,3.6,5.4,48,0.00,,---,0.00,VWS V14.01,2013-02-27 03:10:00,
2013-02-26 22:15:00,63.0,42.6,29.71,SW,233,6.3,7.6,47,0.00,,---,0.00,VWS V14.01,2013-02-27 03:15:00,
2013-02-26 22:20:00,62.8,42.4,29.71,SW,228,3.1,6.3,47,0.00,,---,0.00,VWS V14.01,2013-02-27 03:20:00,
2013-02-26 22:25:00,62.6,42.8,29.71,SW,220,3.1,8.7,48,0.00,,---,0.00,VWS V14.01,2013-02-27 03:25:00,
2013-02-26 22:30:00,62.6,42.2,29.71,South,188,2.7,5.8,47,0.00,,---,0.00,VWS V14.01,2013-02-27 03:30:00,
2013-02-26 22:35:00,62.6,42.2,29.71,West,275,8.3,8.3,47,0.00,,---,0.00,VWS V14.01,2013-02-27 03:35:00,
2013-02-26 22:40:00,62.6,42.8,29.71,WSW,240,3.1,4.0,48,0.00,,---,0.00,VWS V14.01,2013-02-27 03:40:00,
2013-02-26 22:45:00,62.2,43.0,29.71,West,268,3.1,8.3,49,0.00,,---,0.00,VWS V14.01,2013-02-27 03:45:00,
2013-02-26 22:50:00,62.2,43.6,29.71,WSW,248,3.6,5.4,50,0.00,,---,0.00,VWS V14.01,2013-02-27 03:50:00,
2013-02-26 22:55:00,62.1,42.9,29.71,WNW,291,3.6,4.0,49,0.00,,---,0.00,VWS V14.01,2013-02-27 03:55:00,
2013-02-26 23:00:00,62.1,43.4,29.71,West,262,5.8,5.8,50,0.00,,---,0.00,VWS V14.01,2013-02-27 04:00:00,
2013-02-26 23:05:00,61.9,43.3,29.71,SSW,195,3.1,4.9,50,0.00,,---,0.00,VWS V14.01,2013-02-27 04:05:00,
2013-02-26 23:10:00,61.9,43.3,29.71,NNW,344,4.0,5.4,50,0.00,,---,0.00,VWS V14.01,2013-02-27 04:10:00,
2013-02-26 23:15:00,61.7,43.6,29.71,West,267,8.3,9.6,51,0.00,,---,0.00,VWS V14.01,2013-02-27 04:15:00,
2013-02-26 23:20:00,61.5,43.5,29.71,NNW,341,0.0,4.0,51,0.00,,---,0.00,VWS V14.01,2013-02-27 04:20:00,
2013-02-26 23:25:00,61.3,43.3,29.71,SW,233,8.1,8.1,51,0.00,,---,0.00,VWS V14.01,2013-02-27 04:25:00,
2013-02-26 23:30:00,61.3,43.8,29.71,SW,218,5.8,6.7,52,0.00,,---,0.00,VWS V14.01,2013-02-27 04:30:00,
2013-02-26 23:36:00,61.2,44.2,29.71,WNW,285,3.1,6.3,54,0.00,,---,0.00,VWS V14.01,2013-02-27 04:36:00,
2013-02-26 23:41:00,61.0,44.0,29.71,North,357,8.7,8.7,54,0.00,,---,0.00,VWS V14.01,2013-02-27 04:41:00,
2013-02-26 23:46:00,61.0,44.0,29.71,West,274,5.8,8.3,54,0.00,,---,0.00,VWS V14.01,2013-02-27 04:46:00,
2013-02-26 23:51:00,61.0,43.5,29.71,NW,311,4.0,4.0,52,0.00,,---,0.00,VWS V14.01,2013-02-27 04:51:00,
2013-02-26 23:56:00,61.0,43.5,29.71,WNW,292,4.9,5.8,52,0.00,,---,0.00,VWS V14.01,2013-02-27 04:56:00,